createdAt,value
2022-07-29T00:01:19.499Z,36.03
2022-07-29T00:03:47.998Z,36.19
2022-07-29T00:06:16.340Z,35.83
2022-07-29T00:08:44.378Z,36.13
2022-07-29T00:11:13.750Z,35.90
2022-07-29T00:13:41.881Z,35.90
2022-07-29T00:16:09.962Z,36.15
2022-07-29T00:18:37.962Z,36.05
2022-07-29T00:21:05.887Z,35.92
2022-07-29T00:23:36.839Z,36.07
2022-07-29T00:26:05.098Z,35.95
2022-07-29T00:28:34.731Z,36.08
2022-07-29T00:31:02.727Z,35.91
2022-07-29T00:33:31.205Z,36.21
2022-07-29T00:35:58.153Z,35.65
2022-07-29T00:38:26.122Z,35.95
2022-07-29T00:40:54.161Z,35.91
2022-07-29T00:43:22.137Z,35.93
2022-07-29T00:45:51.488Z,35.99
2022-07-29T00:48:19.557Z,35.93
2022-07-29T00:50:47.622Z,35.82
2022-07-29T00:53:15.561Z,35.71
2022-07-29T00:55:43.509Z,35.78
2022-07-29T00:58:14.201Z,35.85
2022-07-29T01:00:42.739Z,35.78
2022-07-29T01:03:15.225Z,35.72
2022-07-29T01:05:50.710Z,35.73
2022-07-29T01:08:20.728Z,35.76
2022-07-29T01:10:49.182Z,35.67
2022-07-29T01:13:18.117Z,35.50
2022-07-29T01:15:49.986Z,35.61
2022-07-29T01:18:26.254Z,35.60
2022-07-29T01:21:17.933Z,35.70
2022-07-29T01:24:01.474Z,35.86
2022-07-29T01:26:47.683Z,35.67
2022-07-29T01:29:35.801Z,35.62
2022-07-29T01:32:21.547Z,35.81
2022-07-29T01:35:00.679Z,35.79
2022-07-29T01:37:34.959Z,35.90
2022-07-29T01:40:06.724Z,35.63
2022-07-29T01:42:38.923Z,35.67
2022-07-29T01:45:16.484Z,35.80
2022-07-29T01:47:47.417Z,35.71
2022-07-29T01:50:19.744Z,35.79
2022-07-29T01:52:58.172Z,35.73
2022-07-29T01:55:30.838Z,35.59
2022-07-29T01:58:00.993Z,35.66
2022-07-29T02:00:33.546Z,35.61
2022-07-29T02:03:04.793Z,35.57
2022-07-29T02:05:34.729Z,35.75
2022-07-29T02:08:04.123Z,35.69
2022-07-29T02:10:35.135Z,35.84
2022-07-29T02:13:06.617Z,35.74
2022-07-29T02:15:37.634Z,35.68
2022-07-29T02:18:10.415Z,35.76
2022-07-29T02:20:39.878Z,35.63
2022-07-29T02:23:11.427Z,35.87
2022-07-29T02:25:39.827Z,35.87
2022-07-29T02:28:09.647Z,35.61
2022-07-29T02:30:44.080Z,35.58
2022-07-29T02:33:16.330Z,35.76
2022-07-29T02:35:46.877Z,35.67
2022-07-29T02:38:33.813Z,35.59
2022-07-29T02:41:05.382Z,35.71
2022-07-29T02:43:34.916Z,35.76
2022-07-29T02:46:28.014Z,35.79
2022-07-29T02:49:01.713Z,35.74
2022-07-29T02:51:43.332Z,35.80
2022-07-29T02:54:17.728Z,35.56
2022-07-29T02:56:47.958Z,35.79
2022-07-29T02:59:20.273Z,35.60
2022-07-29T03:01:51.029Z,35.52
2022-07-29T03:04:21.706Z,35.57
2022-07-29T03:06:52.855Z,35.54
2022-07-29T03:09:21.917Z,35.53
2022-07-29T03:11:51.039Z,35.76
2022-07-29T03:14:21.674Z,35.56
2022-07-29T03:16:52.914Z,35.74
2022-07-29T03:19:22.560Z,35.73
2022-07-29T03:21:51.119Z,35.68
2022-07-29T03:24:30.706Z,35.61
2022-07-29T03:26:59.346Z,35.77
2022-07-29T03:29:33.461Z,35.86
2022-07-29T03:32:07.259Z,35.90
2022-07-29T03:34:36.985Z,35.74
2022-07-29T03:37:05.284Z,35.97
2022-07-29T03:39:38.821Z,35.60
2022-07-29T03:42:08.929Z,35.83
2022-07-29T03:44:38.315Z,35.84
2022-07-29T03:47:10.295Z,35.82
2022-07-29T03:49:39.857Z,35.90
2022-07-29T03:52:08.364Z,35.71
2022-07-29T03:54:36.458Z,35.77
2022-07-29T03:57:05.648Z,36.00
2022-07-29T03:59:35.993Z,35.85
2022-07-29T04:02:05.525Z,35.87
2022-07-29T04:04:37.122Z,35.75
2022-07-29T04:07:05.751Z,35.41
2022-07-29T04:09:33.894Z,35.55
2022-07-29T04:12:04.073Z,35.44
2022-07-29T04:14:33.268Z,35.63
2022-07-29T04:17:01.631Z,35.62
2022-07-29T04:19:29.732Z,35.48
2022-07-29T04:21:59.436Z,35.54
2022-07-29T04:24:27.803Z,35.51
2022-07-29T04:26:56.199Z,35.71
2022-07-29T04:29:24.180Z,35.60
2022-07-29T04:31:52.245Z,35.59
2022-07-29T04:34:21.147Z,35.57
2022-07-29T04:36:49.279Z,35.29
2022-07-29T04:39:23.005Z,35.34
2022-07-29T04:41:52.527Z,35.89
2022-07-29T04:44:28.802Z,35.61
2022-07-29T04:46:58.111Z,35.56
2022-07-29T04:49:26.539Z,35.58
2022-07-29T04:51:54.628Z,35.52
2022-07-29T04:54:24.291Z,35.55
2022-07-29T04:56:53.525Z,35.41
2022-07-29T04:59:21.541Z,35.56
2022-07-29T05:01:49.658Z,35.67
2022-07-29T05:04:17.954Z,35.74
2022-07-29T05:06:46.149Z,35.70
2022-07-29T05:09:14.051Z,35.72
2022-07-29T05:11:43.523Z,36.11
2022-07-29T05:14:11.464Z,35.65
2022-07-29T05:16:41.062Z,35.73
2022-07-29T05:19:13.829Z,35.82
2022-07-29T05:21:42.284Z,36.16
2022-07-29T05:24:10.354Z,36.31
2022-07-29T05:26:38.260Z,35.93
2022-07-29T05:29:07.697Z,36.23
2022-07-29T05:31:55.679Z,36.22
2022-07-29T05:34:23.617Z,35.94
2022-07-29T05:36:51.948Z,36.00
2022-07-29T05:39:19.922Z,35.94
2022-07-29T05:41:51.839Z,36.12
2022-07-29T05:44:21.561Z,35.92
2022-07-29T05:46:53.370Z,36.26
2022-07-29T05:49:27.345Z,36.28
2022-07-29T05:51:55.731Z,35.79
2022-07-29T05:54:23.717Z,35.81
2022-07-29T05:56:51.881Z,36.06
2022-07-29T05:59:21.180Z,36.09
2022-07-29T06:01:49.343Z,35.51
2022-07-29T06:04:17.809Z,35.43
2022-07-29T06:06:46.397Z,35.07
2022-07-29T06:09:14.879Z,33.91
2022-07-29T06:11:43.179Z,33.52
2022-07-29T06:14:11.176Z,33.36
2022-07-29T06:16:40.738Z,33.46
2022-07-29T06:19:08.820Z,33.19
2022-07-29T06:21:38.593Z,32.93
2022-07-29T06:24:10.404Z,32.39
2022-07-29T06:26:40.015Z,32.14
2022-07-29T06:29:08.413Z,32.04
2022-07-29T06:31:36.513Z,31.93
2022-07-29T06:34:05.958Z,31.63
2022-07-29T06:36:37.911Z,31.42
2022-07-29T06:39:08.416Z,31.82
2022-07-29T06:41:36.969Z,31.69
2022-07-29T06:44:10.970Z,30.81
2022-07-29T06:46:39.017Z,30.25
2022-07-29T06:49:08.696Z,30.41
2022-07-29T06:51:37.021Z,30.24
2022-07-29T06:54:06.586Z,29.87
2022-07-29T06:56:38.668Z,30.07
2022-07-29T06:59:09.880Z,29.87
2022-07-29T07:01:39.021Z,30.05
2022-07-29T07:04:09.758Z,29.75
2022-07-29T07:06:38.745Z,30.12
2022-07-29T07:09:06.845Z,29.80
2022-07-29T07:11:35.145Z,29.79
2022-07-29T07:14:04.231Z,30.29
2022-07-29T07:16:33.290Z,30.13
2022-07-29T07:19:01.526Z,29.60
2022-07-29T07:21:31.430Z,29.53
2022-07-29T07:24:00.043Z,30.13
2022-07-29T07:26:28.116Z,30.03
2022-07-29T07:28:56.142Z,30.06
2022-07-29T07:31:24.167Z,29.74
2022-07-29T07:33:52.695Z,30.23
2022-07-29T07:36:20.779Z,29.85
2022-07-29T07:38:50.167Z,30.17
2022-07-29T07:41:18.173Z,29.81
2022-07-29T07:43:46.155Z,30.31
2022-07-29T07:46:14.184Z,30.35
2022-07-29T07:48:42.326Z,30.28
2022-07-29T07:51:10.440Z,29.93
2022-07-29T07:53:38.539Z,29.98
2022-07-29T07:56:10.906Z,30.24
2022-07-29T07:58:39.564Z,30.33
2022-07-29T08:01:07.757Z,30.32
2022-07-29T08:03:35.774Z,29.90
2022-07-29T08:06:04.831Z,29.97
2022-07-29T08:08:32.954Z,30.01
2022-07-29T08:11:08.304Z,30.20
2022-07-29T08:13:39.465Z,30.01
2022-07-29T08:16:13.914Z,30.03
2022-07-29T08:18:43.197Z,29.90
2022-07-29T08:21:11.349Z,30.32
2022-07-29T08:23:51.446Z,30.46
2022-07-29T08:26:23.665Z,30.12
2022-07-29T08:28:53.021Z,30.40
2022-07-29T08:31:21.011Z,30.10
2022-07-29T08:33:48.957Z,29.91
2022-07-29T08:36:16.932Z,30.29
2022-07-29T08:38:44.873Z,30.31
2022-07-29T08:41:12.959Z,29.63
2022-07-29T08:43:42.819Z,29.50
2022-07-29T08:46:12.505Z,29.80
2022-07-29T08:48:41.311Z,29.91
2022-07-29T08:51:10.488Z,29.94
2022-07-29T08:53:39.128Z,30.00
2022-07-29T08:56:07.951Z,30.03
2022-07-29T08:58:37.163Z,29.63
2022-07-29T09:01:07.672Z,29.83
2022-07-29T09:03:42.506Z,29.85
2022-07-29T09:06:10.773Z,29.82
2022-07-29T09:08:38.785Z,30.25
2022-07-29T09:11:08.384Z,30.08
2022-07-29T09:13:36.940Z,30.39
2022-07-29T09:16:09.386Z,29.80
2022-07-29T09:18:39.524Z,29.73
2022-07-29T09:21:28.466Z,29.89
2022-07-29T09:24:08.836Z,30.09
2022-07-29T09:26:38.422Z,30.35
2022-07-29T09:29:13.604Z,30.54
2022-07-29T09:31:43.631Z,30.35
2022-07-29T09:34:13.048Z,30.74
2022-07-29T09:36:44.586Z,30.45
2022-07-29T09:39:13.041Z,30.10
2022-07-29T09:41:48.718Z,30.40
2022-07-29T09:44:16.826Z,30.24
2022-07-29T09:46:59.146Z,30.58
2022-07-29T09:49:27.775Z,30.42
2022-07-29T09:52:06.496Z,30.53
2022-07-29T09:54:37.821Z,30.20
2022-07-29T09:57:07.607Z,30.20
2022-07-29T09:59:35.734Z,29.92
2022-07-29T10:02:13.128Z,29.86
2022-07-29T10:04:41.877Z,29.38
2022-07-29T10:07:11.614Z,29.67
2022-07-29T10:09:39.662Z,29.74
2022-07-29T10:12:10.145Z,29.61
2022-07-29T10:14:39.213Z,29.23
2022-07-29T10:17:08.485Z,29.42
2022-07-29T10:19:37.989Z,29.20
2022-07-29T10:22:08.334Z,29.40
2022-07-29T10:24:39.389Z,29.51
2022-07-29T10:27:10.420Z,29.62
2022-07-29T10:29:38.591Z,29.38
2022-07-29T10:32:37.083Z,29.77
2022-07-29T10:35:21.075Z,29.80
2022-07-29T10:38:06.403Z,29.68
2022-07-29T10:41:06.750Z,29.45
2022-07-29T10:43:43.046Z,29.33
2022-07-29T10:46:13.652Z,29.26
2022-07-29T10:49:11.783Z,29.49
2022-07-29T10:51:58.524Z,29.68
2022-07-29T10:54:52.021Z,29.67
2022-07-29T10:57:53.100Z,29.52
2022-07-29T11:00:34.682Z,29.51
2022-07-29T11:03:04.566Z,29.38
2022-07-29T11:05:54.652Z,28.87
2022-07-29T11:08:28.273Z,28.80
2022-07-29T11:11:36.624Z,29.00
2022-07-29T11:14:10.334Z,28.82
2022-07-29T11:17:06.452Z,29.15
2022-07-29T11:19:36.279Z,29.25
2022-07-29T11:22:04.760Z,29.00
2022-07-29T11:24:35.262Z,28.66
2022-07-29T11:30:08.679Z,28.41
2022-07-29T11:32:39.877Z,28.74
2022-07-29T11:35:37.454Z,28.63
2022-07-29T11:38:29.363Z,28.57
2022-07-29T11:41:22.546Z,28.88
2022-07-29T11:43:53.210Z,29.00
2022-07-29T11:46:48.068Z,28.93
2022-07-29T11:49:31.641Z,28.46
2022-07-29T11:52:10.970Z,28.64
2022-07-29T11:54:57.996Z,28.68
2022-07-29T11:57:36.346Z,28.44
2022-07-29T12:00:12.242Z,28.74
2022-07-29T12:02:48.181Z,28.56
2022-07-29T12:05:36.558Z,28.73
2022-07-29T12:07:01.386Z,28.51
2022-07-29T12:08:12.755Z,28.75
2022-07-29T12:10:44.159Z,28.35
2022-07-29T12:13:12.596Z,28.42
2022-07-29T12:15:47.104Z,28.41
2022-07-29T12:18:24.202Z,28.10
2022-07-29T12:21:03.361Z,28.48
2022-07-29T12:23:34.417Z,28.51
2022-07-29T12:26:07.505Z,28.32
2022-07-29T12:28:40.354Z,28.26
2022-07-29T12:31:15.030Z,28.36
2022-07-29T12:34:04.514Z,28.00
2022-07-29T12:36:33.001Z,27.88
2022-07-29T12:39:01.179Z,28.33
2022-07-29T12:41:30.177Z,28.12
2022-07-29T12:43:58.470Z,28.01
2022-07-29T12:46:26.593Z,28.24
2022-07-29T12:48:57.508Z,28.14
2022-07-29T12:51:32.975Z,27.68
2022-07-29T12:54:07.904Z,27.53
2022-07-29T12:56:44.729Z,27.48
2022-07-29T12:59:15.221Z,27.74
2022-07-29T13:01:43.335Z,27.74
2022-07-29T13:04:11.551Z,27.27
2022-07-29T13:06:42.724Z,27.45
2022-07-29T13:09:15.709Z,27.43
2022-07-29T13:11:48.611Z,27.03
2022-07-29T13:14:32.635Z,27.04
2022-07-29T13:17:06.782Z,26.82
2022-07-29T13:19:37.441Z,27.23
2022-07-29T13:22:07.341Z,27.22
2022-07-29T13:24:35.736Z,27.10
2022-07-29T13:27:05.708Z,26.86
2022-07-29T13:29:34.159Z,26.84
2022-07-29T13:32:02.204Z,26.95
2022-07-29T13:34:30.129Z,26.53
2022-07-29T13:36:58.161Z,26.85
2022-07-29T13:39:27.481Z,26.66
2022-07-29T13:41:56.316Z,26.54
2022-07-29T13:44:25.785Z,26.60
2022-07-29T13:46:53.860Z,26.77
2022-07-29T13:49:21.969Z,26.89
2022-07-29T13:51:50.897Z,26.89
2022-07-29T13:54:19.281Z,26.70
2022-07-29T13:56:48.722Z,26.38
2022-07-29T13:59:16.756Z,26.33
2022-07-29T14:01:45.528Z,26.38
2022-07-29T14:04:14.858Z,26.43
2022-07-29T14:06:43.230Z,26.25
2022-07-29T14:09:11.622Z,26.34
2022-07-29T14:11:39.800Z,26.60
2022-07-29T14:14:09.341Z,26.82
2022-07-29T14:16:42.558Z,26.88
2022-07-29T14:19:12.127Z,27.12
2022-07-29T14:21:40.105Z,27.02
2022-07-29T14:24:17.863Z,26.58
2022-07-29T14:26:49.680Z,26.51
2022-07-29T14:29:19.121Z,26.62
2022-07-29T14:31:47.186Z,26.43
2022-07-29T14:34:16.508Z,26.71
2022-07-29T14:36:44.460Z,26.55
2022-07-29T14:39:12.703Z,26.42
2022-07-29T14:41:40.768Z,26.83
2022-07-29T14:44:08.726Z,26.72
2022-07-29T14:46:38.061Z,26.72
2022-07-29T14:49:06.719Z,26.79
2022-07-29T14:51:37.562Z,26.66
2022-07-29T14:54:05.857Z,26.46
2022-07-29T14:56:36.897Z,26.44
2022-07-29T14:59:05.196Z,26.66
2022-07-29T15:01:33.186Z,26.99
2022-07-29T15:04:02.625Z,26.54
2022-07-29T15:06:30.593Z,26.91
2022-07-29T15:08:58.591Z,26.84
2022-07-29T15:11:26.554Z,27.02
2022-07-29T15:13:54.550Z,27.00
2022-07-29T15:16:23.291Z,26.50
2022-07-29T15:18:51.613Z,27.00
2022-07-29T15:21:21.086Z,26.89
2022-07-29T15:23:49.194Z,26.83
2022-07-29T15:26:17.281Z,26.96
2022-07-29T15:28:45.245Z,26.93
2022-07-29T15:31:13.969Z,26.67
2022-07-29T15:33:42.108Z,26.80
2022-07-29T15:36:11.706Z,26.49
2022-07-29T15:38:41.860Z,26.80
2022-07-29T15:41:10.405Z,26.56
2022-07-29T15:43:38.375Z,26.97
2022-07-29T15:46:23.809Z,27.16
2022-07-29T15:48:51.953Z,27.11
2022-07-29T15:51:20.084Z,27.08
2022-07-29T15:53:53.551Z,26.79
2022-07-29T15:56:21.855Z,27.25
2022-07-29T15:58:49.992Z,27.33
2022-07-29T16:01:18.001Z,27.31
2022-07-29T16:03:46.486Z,26.88
2022-07-29T16:06:14.731Z,26.99
2022-07-29T16:08:42.996Z,27.00
2022-07-29T16:11:12.351Z,26.66
2022-07-29T16:13:40.499Z,26.71
2022-07-29T16:16:08.909Z,27.03
2022-07-29T16:18:36.940Z,26.90
2022-07-29T16:21:05.031Z,26.98
2022-07-29T16:23:33.340Z,26.92
2022-07-29T16:26:01.678Z,26.46
2022-07-29T16:28:31.659Z,26.29
2022-07-29T16:30:59.782Z,26.67
2022-07-29T16:33:28.367Z,26.46
2022-07-29T16:36:18.505Z,26.73
2022-07-29T16:38:47.602Z,26.48
2022-07-29T16:41:15.754Z,26.88
2022-07-29T16:43:45.213Z,26.55
2022-07-29T16:46:18.414Z,26.48
2022-07-29T16:48:47.583Z,26.79
2022-07-29T16:51:16.665Z,26.79
2022-07-29T16:53:44.971Z,26.78
2022-07-29T16:56:13.231Z,26.71
2022-07-29T16:58:43.882Z,26.61
2022-07-29T17:01:13.624Z,26.56
2022-07-29T17:04:01.760Z,26.85
2022-07-29T17:06:29.964Z,26.65
2022-07-29T17:08:58.130Z,26.65
2022-07-29T17:11:51.949Z,26.63
2022-07-29T17:14:14.150Z,26.87
2022-07-29T17:16:43.594Z,26.80
2022-07-29T17:19:27.247Z,26.57
2022-07-29T17:22:03.333Z,26.81
2022-07-29T17:24:35.037Z,26.69
2022-07-29T17:27:03.158Z,26.68
2022-07-29T17:29:31.282Z,27.08
2022-07-29T17:32:00.632Z,27.15
2022-07-29T17:34:28.585Z,27.94
2022-07-29T17:36:58.029Z,28.06
2022-07-29T17:39:26.121Z,28.49
2022-07-29T17:41:54.131Z,29.05
2022-07-29T17:44:22.129Z,29.34
2022-07-29T17:46:50.172Z,29.48
2022-07-29T17:49:21.205Z,29.26
2022-07-29T17:51:49.201Z,29.81
2022-07-29T17:54:17.274Z,29.49
2022-07-29T17:56:45.343Z,29.65
2022-07-29T17:59:14.427Z,30.16
2022-07-29T18:01:42.484Z,29.90
2022-07-29T18:04:11.368Z,30.11
2022-07-29T18:06:40.743Z,30.08
2022-07-29T18:09:08.720Z,30.11
2022-07-29T18:11:36.794Z,30.13
2022-07-29T18:14:07.041Z,30.30
2022-07-29T18:16:35.075Z,30.46
2022-07-29T18:19:03.107Z,30.28
2022-07-29T18:21:50.992Z,30.08
2022-07-29T18:24:20.541Z,30.06
2022-07-29T18:26:48.499Z,29.88
2022-07-29T18:29:16.541Z,29.81
2022-07-29T18:31:44.545Z,29.84
2022-07-29T18:34:12.566Z,30.08
2022-07-29T18:36:40.509Z,29.81
2022-07-29T18:39:08.529Z,30.01
2022-07-29T18:41:49.960Z,29.65
2022-07-29T18:44:19.157Z,29.68
2022-07-29T18:46:48.002Z,29.64
2022-07-29T18:49:16.243Z,29.89
2022-07-29T18:51:44.510Z,29.85
2022-07-29T18:54:12.510Z,30.03
2022-07-29T18:56:42.101Z,30.08
2022-07-29T18:59:10.649Z,30.23
2022-07-29T19:01:39.096Z,30.33
2022-07-29T19:04:07.433Z,30.35
2022-07-29T19:06:35.488Z,30.02
2022-07-29T19:09:03.553Z,30.41
2022-07-29T19:11:31.630Z,30.09
2022-07-29T19:14:01.238Z,30.13
2022-07-29T19:16:29.447Z,30.29
2022-07-29T19:18:57.955Z,30.28
2022-07-29T19:21:26.006Z,30.63
2022-07-29T19:24:00.421Z,30.45
2022-07-29T19:26:39.326Z,30.80
2022-07-29T19:29:08.726Z,30.32
2022-07-29T19:31:36.734Z,30.82
2022-07-29T19:34:04.881Z,30.61
2022-07-29T19:36:32.931Z,30.38
2022-07-29T19:39:01.098Z,30.53
2022-07-29T19:41:29.518Z,30.84
2022-07-29T19:43:57.686Z,30.84
2022-07-29T19:46:29.096Z,30.97
2022-07-29T19:48:57.646Z,30.58
2022-07-29T19:51:25.762Z,31.07
2022-07-29T19:53:53.850Z,30.92
2022-07-29T19:56:21.807Z,31.12
2022-07-29T19:58:52.118Z,30.88
2022-07-29T20:01:21.037Z,30.96
2022-07-29T20:03:50.498Z,30.75
2022-07-29T20:06:18.509Z,31.06
2022-07-29T20:08:46.585Z,31.04
2022-07-29T20:11:14.565Z,31.16
2022-07-29T20:13:42.589Z,31.08
2022-07-29T20:16:10.559Z,31.20
2022-07-29T20:18:38.723Z,31.34
2022-07-29T20:21:08.080Z,31.30
2022-07-29T20:23:36.093Z,31.10
2022-07-29T20:26:08.671Z,31.46
2022-07-29T20:28:40.195Z,31.42
2022-07-29T20:31:08.771Z,31.38
2022-07-29T20:33:36.849Z,31.79
2022-07-29T20:36:05.503Z,31.30
2022-07-29T20:38:34.849Z,31.61
2022-07-29T20:41:02.942Z,31.59
2022-07-29T20:43:31.009Z,31.68
2022-07-29T20:46:05.002Z,31.66
2022-07-29T20:48:33.123Z,31.31
2022-07-29T20:51:01.106Z,31.91
2022-07-29T20:53:29.298Z,31.79
2022-07-29T20:55:58.667Z,31.65
2022-07-29T20:58:26.925Z,31.76
2022-07-29T21:00:54.986Z,31.65
2022-07-29T21:03:23.090Z,32.14
2022-07-29T21:05:51.527Z,32.15
2022-07-29T21:08:19.772Z,31.83
2022-07-29T21:10:47.764Z,31.93
2022-07-29T21:13:17.349Z,32.04
2022-07-29T21:15:48.545Z,31.71
2022-07-29T21:18:27.242Z,31.56
2022-07-29T21:20:55.409Z,32.03
2022-07-29T21:23:23.398Z,31.56
2022-07-29T21:25:51.477Z,31.57
2022-07-29T21:28:30.894Z,31.84
2022-07-29T21:31:01.493Z,31.78
2022-07-29T21:33:31.761Z,31.66
2022-07-29T21:36:42.358Z,31.97
2022-07-29T21:38:48.464Z,32.08
2022-07-29T21:41:16.433Z,32.03
2022-07-29T21:43:46.168Z,32.06
2022-07-29T21:46:16.507Z,32.08
2022-07-29T21:48:44.845Z,31.73
2022-07-29T21:51:12.963Z,32.06
2022-07-29T21:53:41.013Z,31.74
2022-07-29T21:56:09.449Z,31.82
2022-07-29T21:58:43.333Z,32.14
2022-07-29T22:01:12.760Z,32.17
2022-07-29T22:03:40.880Z,32.25
2022-07-29T22:06:08.980Z,31.96
2022-07-29T22:08:45.613Z,32.50
2022-07-29T22:11:13.667Z,32.07
2022-07-29T22:13:41.743Z,32.51
2022-07-29T22:16:10.258Z,32.24
2022-07-29T22:18:39.593Z,32.47
2022-07-29T22:21:07.913Z,32.24
2022-07-29T22:23:35.914Z,32.69
2022-07-29T22:26:04.269Z,33.00
2022-07-29T22:28:32.290Z,33.29
2022-07-29T22:31:00.333Z,33.07
2022-07-29T22:33:28.844Z,33.93
2022-07-29T22:35:58.193Z,34.01
2022-07-29T22:38:26.266Z,35.05
2022-07-29T22:40:54.198Z,35.29
2022-07-29T22:43:28.717Z,36.61
2022-07-29T22:45:56.816Z,36.77
2022-07-29T22:48:24.834Z,37.70
2022-07-29T22:50:52.778Z,37.76
2022-07-29T22:53:22.317Z,37.10
2022-07-29T22:55:50.461Z,37.35
2022-07-29T22:58:18.518Z,37.21
2022-07-29T23:00:46.464Z,36.63
2022-07-29T23:03:14.528Z,36.67
2022-07-29T23:05:42.544Z,36.12
2022-07-29T23:08:10.545Z,35.91
2022-07-29T23:10:39.979Z,35.69
2022-07-29T23:13:09.241Z,36.04
2022-07-29T23:15:37.314Z,35.93
2022-07-29T23:18:05.456Z,35.69
2022-07-29T23:20:33.693Z,35.40
2022-07-29T23:23:01.817Z,35.55
2022-07-29T23:25:29.825Z,35.55
2022-07-29T23:27:59.251Z,35.53
2022-07-29T23:30:27.730Z,35.33
2022-07-29T23:32:56.317Z,35.12
2022-07-29T23:35:24.632Z,35.33
2022-07-29T23:37:52.621Z,34.88
2022-07-29T23:40:20.811Z,35.21
2022-07-29T23:42:48.817Z,35.22
2022-07-29T23:45:18.379Z,35.10
2022-07-29T23:47:46.845Z,34.79
2022-07-29T23:50:16.792Z,35.15
2022-07-29T23:52:45.214Z,35.33
2022-07-29T23:55:36.983Z,34.79
2022-07-29T23:58:03.033Z,35.17
